sensor_id;sensor_type;location;lat;lon;timestamp;P1;durP1;ratioP1;P2;durP2;ratioP2
16892;SDS011;8563;52.242;9.098;2022-09-01T00:00:34;1.00;;;0.60;;
16892;SDS011;8563;52.242;9.098;2022-09-01T00:03:07;1.00;;;0.77;;
16892;SDS011;8563;52.242;9.098;2022-09-01T00:05:42;0.70;;;0.67;;
16892;SDS011;8563;52.242;9.098;2022-09-01T00:08:15;1.70;;;0.60;;
16892;SDS011;8563;52.242;9.098;2022-09-01T00:10:48;3.70;;;0.80;;
16892;SDS011;8563;52.242;9.098;2022-09-01T00:13:20;4.30;;;0.60;;
16892;SDS011;8563;52.242;9.098;2022-09-01T00:15:54;0.60;;;0.53;;
16892;SDS011;8563;52.242;9.098;2022-09-01T00:18:27;1.20;;;0.60;;
16892;SDS011;8563;52.242;9.098;2022-09-01T00:21:00;0.93;;;0.50;;
16892;SDS011;8563;52.242;9.098;2022-09-01T00:23:32;1.33;;;0.67;;
16892;SDS011;8563;52.242;9.098;2022-09-01T00:26:05;0.87;;;0.70;;
16892;SDS011;8563;52.242;9.098;2022-09-01T00:28:37;0.80;;;0.60;;
16892;SDS011;8563;52.242;9.098;2022-09-01T00:31:12;1.03;;;0.70;;
16892;SDS011;8563;52.242;9.098;2022-09-01T00:33:45;1.10;;;0.70;;
16892;SDS011;8563;52.242;9.098;2022-09-01T00:36:18;1.57;;;0.80;;
16892;SDS011;8563;52.242;9.098;2022-09-01T00:38:51;1.20;;;0.80;;
16892;SDS011;8563;52.242;9.098;2022-09-01T00:41:25;1.00;;;0.90;;
16892;SDS011;8563;52.242;9.098;2022-09-01T00:44:00;1.83;;;0.77;;
16892;SDS011;8563;52.242;9.098;2022-09-01T00:46:38;1.37;;;0.80;;
16892;SDS011;8563;52.242;9.098;2022-09-01T00:49:13;1.43;;;0.70;;
16892;SDS011;8563;52.242;9.098;2022-09-01T00:51:50;0.70;;;0.60;;
16892;SDS011;8563;52.242;9.098;2022-09-01T00:54:26;1.50;;;0.80;;
16892;SDS011;8563;52.242;9.098;2022-09-01T00:57:02;1.80;;;0.53;;
16892;SDS011;8563;52.242;9.098;2022-09-01T00:59:37;3.17;;;0.67;;
16892;SDS011;8563;52.242;9.098;2022-09-01T01:02:15;2.00;;;0.73;;
16892;SDS011;8563;52.242;9.098;2022-09-01T01:04:48;2.33;;;0.73;;
16892;SDS011;8563;52.242;9.098;2022-09-01T01:07:22;1.40;;;0.77;;
16892;SDS011;8563;52.242;9.098;2022-09-01T01:09:56;1.17;;;0.77;;
16892;SDS011;8563;52.242;9.098;2022-09-01T01:12:28;1.83;;;0.70;;
16892;SDS011;8563;52.242;9.098;2022-09-01T01:15:02;1.20;;;0.70;;
16892;SDS011;8563;52.242;9.098;2022-09-01T01:17:38;0.90;;;0.70;;
16892;SDS011;8563;52.242;9.098;2022-09-01T01:20:10;1.07;;;0.70;;
16892;SDS011;8563;52.242;9.098;2022-09-01T01:23:08;1.83;;;0.70;;
16892;SDS011;8563;52.242;9.098;2022-09-01T01:25:47;1.83;;;1.00;;
16892;SDS011;8563;52.242;9.098;2022-09-01T01:28:24;0.93;;;0.60;;
16892;SDS011;8563;52.242;9.098;2022-09-01T01:31:01;1.30;;;0.70;;
16892;SDS011;8563;52.242;9.098;2022-09-01T01:33:42;0.73;;;0.57;;
16892;SDS011;8563;52.242;9.098;2022-09-01T01:36:17;3.20;;;0.90;;
16892;SDS011;8563;52.242;9.098;2022-09-01T01:39:05;1.80;;;0.77;;
16892;SDS011;8563;52.242;9.098;2022-09-01T01:41:42;0.70;;;0.70;;
16892;SDS011;8563;52.242;9.098;2022-09-01T01:44:20;1.03;;;0.70;;
16892;SDS011;8563;52.242;9.098;2022-09-01T01:46:58;0.90;;;0.63;;
16892;SDS011;8563;52.242;9.098;2022-09-01T01:49:34;1.87;;;0.90;;
16892;SDS011;8563;52.242;9.098;2022-09-01T01:52:07;1.40;;;1.10;;
16892;SDS011;8563;52.242;9.098;2022-09-01T01:54:41;1.47;;;0.83;;
16892;SDS011;8563;52.242;9.098;2022-09-01T01:57:18;2.37;;;0.80;;
16892;SDS011;8563;52.242;9.098;2022-09-01T01:59:50;1.20;;;0.70;;
16892;SDS011;8563;52.242;9.098;2022-09-01T02:02:23;1.60;;;0.70;;
16892;SDS011;8563;52.242;9.098;2022-09-01T02:04:55;1.67;;;1.20;;
16892;SDS011;8563;52.242;9.098;2022-09-01T02:07:28;1.50;;;0.77;;
16892;SDS011;8563;52.242;9.098;2022-09-01T02:10:02;2.37;;;0.90;;
16892;SDS011;8563;52.242;9.098;2022-09-01T02:12:36;1.17;;;0.80;;
16892;SDS011;8563;52.242;9.098;2022-09-01T02:15:12;2.17;;;0.80;;
16892;SDS011;8563;52.242;9.098;2022-09-01T02:17:45;3.77;;;1.00;;
16892;SDS011;8563;52.242;9.098;2022-09-01T02:20:18;2.00;;;0.97;;
16892;SDS011;8563;52.242;9.098;2022-09-01T02:22:51;1.13;;;0.70;;
16892;SDS011;8563;52.242;9.098;2022-09-01T02:25:24;1.27;;;0.90;;
16892;SDS011;8563;52.242;9.098;2022-09-01T02:27:59;1.30;;;0.90;;
16892;SDS011;8563;52.242;9.098;2022-09-01T02:30:33;1.37;;;0.80;;
16892;SDS011;8563;52.242;9.098;2022-09-01T02:33:07;1.17;;;0.73;;
16892;SDS011;8563;52.242;9.098;2022-09-01T02:35:39;0.80;;;0.60;;
16892;SDS011;8563;52.242;9.098;2022-09-01T02:38:12;1.17;;;0.80;;
16892;SDS011;8563;52.242;9.098;2022-09-01T02:40:47;1.10;;;0.73;;
16892;SDS011;8563;52.242;9.098;2022-09-01T02:43:22;2.70;;;0.73;;
16892;SDS011;8563;52.242;9.098;2022-09-01T02:45:58;0.60;;;0.60;;
16892;SDS011;8563;52.242;9.098;2022-09-01T02:48:32;2.33;;;0.73;;
16892;SDS011;8563;52.242;9.098;2022-09-01T02:51:09;1.17;;;0.80;;
16892;SDS011;8563;52.242;9.098;2022-09-01T02:53:44;1.47;;;1.00;;
16892;SDS011;8563;52.242;9.098;2022-09-01T02:56:22;2.40;;;0.80;;
16892;SDS011;8563;52.242;9.098;2022-09-01T02:58:59;1.17;;;1.00;;
16892;SDS011;8563;52.242;9.098;2022-09-01T03:01:32;1.43;;;0.80;;
16892;SDS011;8563;52.242;9.098;2022-09-01T03:04:06;0.77;;;0.70;;
16892;SDS011;8563;52.242;9.098;2022-09-01T03:06:40;2.73;;;1.00;;
16892;SDS011;8563;52.242;9.098;2022-09-01T03:09:16;0.80;;;0.70;;
16892;SDS011;8563;52.242;9.098;2022-09-01T03:11:50;2.00;;;0.90;;
16892;SDS011;8563;52.242;9.098;2022-09-01T03:14:25;3.93;;;1.20;;
16892;SDS011;8563;52.242;9.098;2022-09-01T03:16:59;1.57;;;1.00;;
16892;SDS011;8563;52.242;9.098;2022-09-01T03:19:31;2.53;;;0.97;;
16892;SDS011;8563;52.242;9.098;2022-09-01T03:22:15;1.80;;;0.90;;
16892;SDS011;8563;52.242;9.098;2022-09-01T03:24:49;1.67;;;1.00;;
16892;SDS011;8563;52.242;9.098;2022-09-01T03:27:22;1.40;;;0.90;;
16892;SDS011;8563;52.242;9.098;2022-09-01T03:29:55;1.10;;;1.00;;
16892;SDS011;8563;52.242;9.098;2022-09-01T03:32:28;1.53;;;0.70;;
16892;SDS011;8563;52.242;9.098;2022-09-01T03:35:00;2.93;;;0.83;;
16892;SDS011;8563;52.242;9.098;2022-09-01T03:37:33;1.97;;;1.10;;
16892;SDS011;8563;52.242;9.098;2022-09-01T03:40:07;1.67;;;0.87;;
16892;SDS011;8563;52.242;9.098;2022-09-01T03:42:40;1.77;;;1.00;;
16892;SDS011;8563;52.242;9.098;2022-09-01T03:45:14;1.60;;;0.90;;
16892;SDS011;8563;52.242;9.098;2022-09-01T03:47:50;1.20;;;1.00;;
16892;SDS011;8563;52.242;9.098;2022-09-01T03:50:24;1.77;;;0.90;;
16892;SDS011;8563;52.242;9.098;2022-09-01T03:52:57;1.23;;;1.00;;
16892;SDS011;8563;52.242;9.098;2022-09-01T03:55:31;2.43;;;0.80;;
16892;SDS011;8563;52.242;9.098;2022-09-01T03:58:08;1.57;;;1.20;;
16892;SDS011;8563;52.242;9.098;2022-09-01T04:00:46;1.13;;;0.80;;
16892;SDS011;8563;52.242;9.098;2022-09-01T04:03:26;5.07;;;1.07;;
16892;SDS011;8563;52.242;9.098;2022-09-01T04:06:02;2.57;;;1.10;;
16892;SDS011;8563;52.242;9.098;2022-09-01T04:08:37;1.40;;;0.90;;
16892;SDS011;8563;52.242;9.098;2022-09-01T04:11:10;2.47;;;1.03;;
16892;SDS011;8563;52.242;9.098;2022-09-01T04:13:45;1.07;;;0.97;;
16892;SDS011;8563;52.242;9.098;2022-09-01T04:16:22;1.50;;;1.10;;
16892;SDS011;8563;52.242;9.098;2022-09-01T04:19:16;0.93;;;0.80;;
16892;SDS011;8563;52.242;9.098;2022-09-01T04:21:55;3.27;;;0.90;;
16892;SDS011;8563;52.242;9.098;2022-09-01T04:24:31;1.40;;;0.97;;
16892;SDS011;8563;52.242;9.098;2022-09-01T04:27:05;1.87;;;1.10;;
16892;SDS011;8563;52.242;9.098;2022-09-01T04:29:39;2.17;;;1.10;;
16892;SDS011;8563;52.242;9.098;2022-09-01T04:32:13;1.60;;;1.00;;
16892;SDS011;8563;52.242;9.098;2022-09-01T04:34:49;1.43;;;1.10;;
16892;SDS011;8563;52.242;9.098;2022-09-01T04:37:22;0.93;;;0.80;;
16892;SDS011;8563;52.242;9.098;2022-09-01T04:39:58;1.13;;;0.90;;
16892;SDS011;8563;52.242;9.098;2022-09-01T04:42:31;1.00;;;0.87;;
16892;SDS011;8563;52.242;9.098;2022-09-01T04:45:06;2.43;;;1.00;;
16892;SDS011;8563;52.242;9.098;2022-09-01T04:47:42;3.37;;;1.40;;
16892;SDS011;8563;52.242;9.098;2022-09-01T04:50:21;1.73;;;0.90;;
16892;SDS011;8563;52.242;9.098;2022-09-01T04:53:14;3.80;;;1.23;;
16892;SDS011;8563;52.242;9.098;2022-09-01T04:55:52;2.60;;;1.40;;
16892;SDS011;8563;52.242;9.098;2022-09-01T04:58:26;1.53;;;1.23;;
16892;SDS011;8563;52.242;9.098;2022-09-01T05:00:59;2.37;;;1.30;;
16892;SDS011;8563;52.242;9.098;2022-09-01T05:03:38;3.37;;;1.20;;
16892;SDS011;8563;52.242;9.098;2022-09-01T05:06:39;2.73;;;1.30;;
16892;SDS011;8563;52.242;9.098;2022-09-01T05:09:13;2.07;;;1.10;;
16892;SDS011;8563;52.242;9.098;2022-09-01T05:12:02;2.50;;;1.40;;
16892;SDS011;8563;52.242;9.098;2022-09-01T05:14:44;2.97;;;1.23;;
16892;SDS011;8563;52.242;9.098;2022-09-01T05:17:20;1.63;;;1.27;;
16892;SDS011;8563;52.242;9.098;2022-09-01T05:19:59;1.47;;;1.20;;
16892;SDS011;8563;52.242;9.098;2022-09-01T05:22:31;2.43;;;1.20;;
16892;SDS011;8563;52.242;9.098;2022-09-01T05:25:08;2.00;;;1.20;;
16892;SDS011;8563;52.242;9.098;2022-09-01T05:27:48;2.67;;;1.37;;
16892;SDS011;8563;52.242;9.098;2022-09-01T05:30:23;1.63;;;1.20;;
16892;SDS011;8563;52.242;9.098;2022-09-01T05:32:57;1.30;;;1.10;;
16892;SDS011;8563;52.242;9.098;2022-09-01T05:35:31;2.97;;;1.10;;
16892;SDS011;8563;52.242;9.098;2022-09-01T05:38:05;2.83;;;1.40;;
16892;SDS011;8563;52.242;9.098;2022-09-01T05:40:44;1.47;;;1.10;;
16892;SDS011;8563;52.242;9.098;2022-09-01T05:43:28;1.80;;;1.00;;
16892;SDS011;8563;52.242;9.098;2022-09-01T05:46:05;1.00;;;0.90;;
16892;SDS011;8563;52.242;9.098;2022-09-01T05:48:39;2.70;;;1.20;;
16892;SDS011;8563;52.242;9.098;2022-09-01T05:51:15;3.03;;;1.13;;
16892;SDS011;8563;52.242;9.098;2022-09-01T05:53:49;3.43;;;1.20;;
16892;SDS011;8563;52.242;9.098;2022-09-01T05:56:25;1.67;;;1.10;;
16892;SDS011;8563;52.242;9.098;2022-09-01T05:58:59;2.17;;;1.47;;
16892;SDS011;8563;52.242;9.098;2022-09-01T06:01:33;1.57;;;1.23;;
16892;SDS011;8563;52.242;9.098;2022-09-01T06:04:11;1.70;;;1.40;;
16892;SDS011;8563;52.242;9.098;2022-09-01T06:06:46;4.83;;;1.63;;
16892;SDS011;8563;52.242;9.098;2022-09-01T06:09:21;3.30;;;1.80;;
16892;SDS011;8563;52.242;9.098;2022-09-01T06:11:57;1.73;;;1.30;;
16892;SDS011;8563;52.242;9.098;2022-09-01T06:14:32;1.60;;;1.50;;
16892;SDS011;8563;52.242;9.098;2022-09-01T06:17:05;2.43;;;1.50;;
16892;SDS011;8563;52.242;9.098;2022-09-01T06:19:41;1.67;;;1.30;;
16892;SDS011;8563;52.242;9.098;2022-09-01T06:22:15;1.40;;;1.10;;
16892;SDS011;8563;52.242;9.098;2022-09-01T06:24:48;2.23;;;1.10;;
16892;SDS011;8563;52.242;9.098;2022-09-01T06:27:21;1.30;;;1.20;;
16892;SDS011;8563;52.242;9.098;2022-09-01T06:29:54;1.97;;;1.30;;
16892;SDS011;8563;52.242;9.098;2022-09-01T06:32:27;1.80;;;1.40;;
16892;SDS011;8563;52.242;9.098;2022-09-01T06:35:00;5.37;;;1.63;;
16892;SDS011;8563;52.242;9.098;2022-09-01T06:37:39;1.97;;;1.63;;
16892;SDS011;8563;52.242;9.098;2022-09-01T06:40:15;2.77;;;1.40;;
16892;SDS011;8563;52.242;9.098;2022-09-01T06:42:48;2.20;;;1.47;;
16892;SDS011;8563;52.242;9.098;2022-09-01T06:45:23;5.93;;;1.20;;
16892;SDS011;8563;52.242;9.098;2022-09-01T06:47:56;2.67;;;1.10;;
16892;SDS011;8563;52.242;9.098;2022-09-01T06:50:29;1.60;;;1.20;;
16892;SDS011;8563;52.242;9.098;2022-09-01T06:53:03;1.97;;;1.10;;
16892;SDS011;8563;52.242;9.098;2022-09-01T06:55:38;1.77;;;1.10;;
16892;SDS011;8563;52.242;9.098;2022-09-01T06:58:11;1.93;;;1.13;;
16892;SDS011;8563;52.242;9.098;2022-09-01T07:00:50;3.07;;;1.47;;
16892;SDS011;8563;52.242;9.098;2022-09-01T07:03:23;3.00;;;1.30;;
16892;SDS011;8563;52.242;9.098;2022-09-01T07:06:15;2.43;;;1.27;;
16892;SDS011;8563;52.242;9.098;2022-09-01T07:09:14;3.50;;;1.30;;
16892;SDS011;8563;52.242;9.098;2022-09-01T07:11:49;2.67;;;1.20;;
16892;SDS011;8563;52.242;9.098;2022-09-01T07:14:22;3.70;;;1.20;;
16892;SDS011;8563;52.242;9.098;2022-09-01T07:16:55;2.00;;;1.20;;
16892;SDS011;8563;52.242;9.098;2022-09-01T07:19:28;1.80;;;1.17;;
16892;SDS011;8563;52.242;9.098;2022-09-01T07:22:04;3.07;;;1.40;;
16892;SDS011;8563;52.242;9.098;2022-09-01T07:24:40;3.13;;;0.93;;
16892;SDS011;8563;52.242;9.098;2022-09-01T07:27:45;1.30;;;0.87;;
16892;SDS011;8563;52.242;9.098;2022-09-01T07:30:21;4.40;;;1.30;;
16892;SDS011;8563;52.242;9.098;2022-09-01T07:32:54;4.70;;;1.20;;
16892;SDS011;8563;52.242;9.098;2022-09-01T07:35:28;1.13;;;0.97;;
16892;SDS011;8563;52.242;9.098;2022-09-01T07:38:03;4.37;;;1.00;;
16892;SDS011;8563;52.242;9.098;2022-09-01T07:40:42;1.60;;;1.07;;
16892;SDS011;8563;52.242;9.098;2022-09-01T07:43:33;2.50;;;1.07;;
16892;SDS011;8563;52.242;9.098;2022-09-01T07:46:25;2.87;;;1.17;;
16892;SDS011;8563;52.242;9.098;2022-09-01T07:48:58;3.67;;;1.30;;
16892;SDS011;8563;52.242;9.098;2022-09-01T07:51:32;1.30;;;0.97;;
16892;SDS011;8563;52.242;9.098;2022-09-01T07:54:06;4.80;;;1.23;;
16892;SDS011;8563;52.242;9.098;2022-09-01T07:56:40;2.93;;;1.00;;
16892;SDS011;8563;52.242;9.098;2022-09-01T07:59:14;3.07;;;0.97;;
16892;SDS011;8563;52.242;9.098;2022-09-01T08:01:59;3.60;;;1.10;;
16892;SDS011;8563;52.242;9.098;2022-09-01T08:04:35;1.77;;;1.00;;
16892;SDS011;8563;52.242;9.098;2022-09-01T08:07:09;1.70;;;1.00;;
16892;SDS011;8563;52.242;9.098;2022-09-01T08:09:42;3.20;;;1.17;;
16892;SDS011;8563;52.242;9.098;2022-09-01T08:12:16;1.87;;;0.73;;
16892;SDS011;8563;52.242;9.098;2022-09-01T08:14:53;4.57;;;0.95;;
16892;SDS011;8563;52.242;9.098;2022-09-01T08:17:26;1.45;;;0.90;;
16892;SDS011;8563;52.242;9.098;2022-09-01T08:20:01;5.13;;;1.07;;
16892;SDS011;8563;52.242;9.098;2022-09-01T08:22:56;1.48;;;1.00;;
16892;SDS011;8563;52.242;9.098;2022-09-01T08:25:40;2.77;;;1.10;;
16892;SDS011;8563;52.242;9.098;2022-09-01T08:28:14;5.00;;;0.90;;
16892;SDS011;8563;52.242;9.098;2022-09-01T08:30:48;1.75;;;0.80;;
16892;SDS011;8563;52.242;9.098;2022-09-01T08:33:22;1.40;;;0.88;;
16892;SDS011;8563;52.242;9.098;2022-09-01T08:35:55;3.47;;;1.20;;
16892;SDS011;8563;52.242;9.098;2022-09-01T08:38:28;2.53;;;0.90;;
16892;SDS011;8563;52.242;9.098;2022-09-01T08:41:02;1.83;;;1.15;;
16892;SDS011;8563;52.242;9.098;2022-09-01T08:43:45;3.90;;;0.95;;
16892;SDS011;8563;52.242;9.098;2022-09-01T08:46:24;7.45;;;1.00;;
16892;SDS011;8563;52.242;9.098;2022-09-01T08:48:59;2.92;;;1.05;;
16892;SDS011;8563;52.242;9.098;2022-09-01T08:51:56;3.65;;;1.20;;
16892;SDS011;8563;52.242;9.098;2022-09-01T08:54:34;2.35;;;0.98;;
16892;SDS011;8563;52.242;9.098;2022-09-01T08:57:10;1.83;;;0.90;;
16892;SDS011;8563;52.242;9.098;2022-09-01T09:00:08;3.78;;;0.80;;
16892;SDS011;8563;52.242;9.098;2022-09-01T09:02:45;1.30;;;0.77;;
16892;SDS011;8563;52.242;9.098;2022-09-01T09:05:29;3.38;;;1.25;;
16892;SDS011;8563;52.242;9.098;2022-09-01T09:08:16;2.15;;;0.75;;
16892;SDS011;8563;52.242;9.098;2022-09-01T09:11:04;1.70;;;0.80;;
16892;SDS011;8563;52.242;9.098;2022-09-01T09:13:46;2.97;;;0.90;;
16892;SDS011;8563;52.242;9.098;2022-09-01T09:16:31;2.95;;;0.75;;
16892;SDS011;8563;52.242;9.098;2022-09-01T09:19:12;3.95;;;1.42;;
16892;SDS011;8563;52.242;9.098;2022-09-01T09:21:50;2.47;;;0.88;;
16892;SDS011;8563;52.242;9.098;2022-09-01T09:24:26;6.07;;;1.15;;
16892;SDS011;8563;52.242;9.098;2022-09-01T09:27:17;1.52;;;0.90;;
16892;SDS011;8563;52.242;9.098;2022-09-01T09:29:52;6.07;;;1.05;;
16892;SDS011;8563;52.242;9.098;2022-09-01T09:35:19;2.97;;;0.90;;
16892;SDS011;8563;52.242;9.098;2022-09-01T09:38:14;3.00;;;0.90;;
16892;SDS011;8563;52.242;9.098;2022-09-01T09:40:58;1.27;;;0.80;;
16892;SDS011;8563;52.242;9.098;2022-09-01T09:43:33;1.65;;;0.68;;
16892;SDS011;8563;52.242;9.098;2022-09-01T09:46:21;1.45;;;0.75;;
16892;SDS011;8563;52.242;9.098;2022-09-01T09:49:07;1.20;;;0.80;;
16892;SDS011;8563;52.242;9.098;2022-09-01T09:51:43;1.48;;;0.80;;
16892;SDS011;8563;52.242;9.098;2022-09-01T09:54:20;2.53;;;0.88;;
16892;SDS011;8563;52.242;9.098;2022-09-01T09:57:05;1.27;;;0.57;;
16892;SDS011;8563;52.242;9.098;2022-09-01T09:59:43;3.08;;;0.73;;
16892;SDS011;8563;52.242;9.098;2022-09-01T10:02:24;3.55;;;0.80;;
16892;SDS011;8563;52.242;9.098;2022-09-01T10:05:22;0.95;;;0.68;;
16892;SDS011;8563;52.242;9.098;2022-09-01T10:08:08;3.83;;;0.80;;
16892;SDS011;8563;52.242;9.098;2022-09-01T10:10:42;1.60;;;0.90;;
16892;SDS011;8563;52.242;9.098;2022-09-01T10:13:17;1.13;;;0.70;;
16892;SDS011;8563;52.242;9.098;2022-09-01T10:15:52;2.33;;;0.73;;
16892;SDS011;8563;52.242;9.098;2022-09-01T10:18:28;0.90;;;0.65;;
16892;SDS011;8563;52.242;9.098;2022-09-01T10:21:06;3.17;;;0.77;;
16892;SDS011;8563;52.242;9.098;2022-09-01T10:23:41;1.48;;;0.60;;
16892;SDS011;8563;52.242;9.098;2022-09-01T10:26:14;1.58;;;0.90;;
16892;SDS011;8563;52.242;9.098;2022-09-01T10:28:51;1.48;;;0.85;;
16892;SDS011;8563;52.242;9.098;2022-09-01T10:31:26;3.08;;;0.68;;
16892;SDS011;8563;52.242;9.098;2022-09-01T10:34:00;2.10;;;0.75;;
16892;SDS011;8563;52.242;9.098;2022-09-01T10:36:37;2.40;;;0.90;;
16892;SDS011;8563;52.242;9.098;2022-09-01T10:39:12;3.03;;;0.70;;
16892;SDS011;8563;52.242;9.098;2022-09-01T10:41:48;1.80;;;0.70;;
16892;SDS011;8563;52.242;9.098;2022-09-01T10:44:23;2.03;;;0.63;;
16892;SDS011;8563;52.242;9.098;2022-09-01T10:47:00;0.75;;;0.55;;
16892;SDS011;8563;52.242;9.098;2022-09-01T10:55:35;0.80;;;0.47;;
16892;SDS011;8563;52.242;9.098;2022-09-01T10:58:28;1.70;;;0.70;;
16892;SDS011;8563;52.242;9.098;2022-09-01T11:01:13;1.02;;;0.57;;
16892;SDS011;8563;52.242;9.098;2022-09-01T11:03:50;1.63;;;0.70;;
16892;SDS011;8563;52.242;9.098;2022-09-01T11:09:36;7.70;;;0.70;;
16892;SDS011;8563;52.242;9.098;2022-09-01T11:12:13;1.00;;;0.70;;
16892;SDS011;8563;52.242;9.098;2022-09-01T11:15:00;3.00;;;0.70;;
16892;SDS011;8563;52.242;9.098;2022-09-01T11:17:35;0.60;;;0.50;;
16892;SDS011;8563;52.242;9.098;2022-09-01T11:20:09;2.80;;;0.73;;
16892;SDS011;8563;52.242;9.098;2022-09-01T11:22:57;1.20;;;0.50;;
16892;SDS011;8563;52.242;9.098;2022-09-01T11:25:36;1.00;;;0.60;;
16892;SDS011;8563;52.242;9.098;2022-09-01T11:31:21;2.35;;;0.60;;
16892;SDS011;8563;52.242;9.098;2022-09-01T11:34:06;1.35;;;0.60;;
16892;SDS011;8563;52.242;9.098;2022-09-01T11:36:46;0.70;;;0.40;;
16892;SDS011;8563;52.242;9.098;2022-09-01T11:39:38;1.17;;;0.50;;
16892;SDS011;8563;52.242;9.098;2022-09-01T11:42:17;2.35;;;0.55;;
16892;SDS011;8563;52.242;9.098;2022-09-01T11:44:52;2.00;;;0.50;;
16892;SDS011;8563;52.242;9.098;2022-09-01T11:47:29;0.55;;;0.50;;
16892;SDS011;8563;52.242;9.098;2022-09-01T11:50:17;0.70;;;0.70;;
16892;SDS011;8563;52.242;9.098;2022-09-01T11:52:51;1.67;;;0.60;;
16892;SDS011;8563;52.242;9.098;2022-09-01T11:55:27;0.82;;;0.60;;
16892;SDS011;8563;52.242;9.098;2022-09-01T11:58:03;3.42;;;0.45;;
16892;SDS011;8563;52.242;9.098;2022-09-01T12:00:36;0.98;;;0.50;;
16892;SDS011;8563;52.242;9.098;2022-09-01T12:03:18;0.70;;;0.50;;
16892;SDS011;8563;52.242;9.098;2022-09-01T12:05:52;1.35;;;0.60;;
16892;SDS011;8563;52.242;9.098;2022-09-01T12:08:30;0.90;;;0.50;;
16892;SDS011;8563;52.242;9.098;2022-09-01T12:11:06;1.52;;;0.60;;
16892;SDS011;8563;52.242;9.098;2022-09-01T12:13:42;1.42;;;0.70;;
16892;SDS011;8563;52.242;9.098;2022-09-01T12:16:26;0.90;;;0.60;;
16892;SDS011;8563;52.242;9.098;2022-09-01T12:19:04;0.82;;;0.50;;
16892;SDS011;8563;52.242;9.098;2022-09-01T12:21:41;1.90;;;0.52;;
16892;SDS011;8563;52.242;9.098;2022-09-01T12:24:26;3.22;;;0.70;;
16892;SDS011;8563;52.242;9.098;2022-09-01T12:27:02;0.80;;;0.50;;
16892;SDS011;8563;52.242;9.098;2022-09-01T12:29:36;1.42;;;0.50;;
16892;SDS011;8563;52.242;9.098;2022-09-01T12:32:09;2.38;;;0.75;;
16892;SDS011;8563;52.242;9.098;2022-09-01T12:34:45;4.90;;;0.60;;
16892;SDS011;8563;52.242;9.098;2022-09-01T12:37:30;0.65;;;0.50;;
16892;SDS011;8563;52.242;9.098;2022-09-01T12:40:03;1.63;;;0.68;;
16892;SDS011;8563;52.242;9.098;2022-09-01T12:42:35;1.60;;;0.80;;
16892;SDS011;8563;52.242;9.098;2022-09-01T12:45:10;1.27;;;0.90;;
16892;SDS011;8563;52.242;9.098;2022-09-01T12:47:43;3.70;;;0.55;;
16892;SDS011;8563;52.242;9.098;2022-09-01T12:53:24;1.05;;;0.68;;
16892;SDS011;8563;52.242;9.098;2022-09-01T12:56:15;1.15;;;0.57;;
16892;SDS011;8563;52.242;9.098;2022-09-01T12:59:02;0.70;;;0.60;;
16892;SDS011;8563;52.242;9.098;2022-09-01T13:01:39;3.22;;;0.68;;
16892;SDS011;8563;52.242;9.098;2022-09-01T13:04:14;0.88;;;0.50;;
16892;SDS011;8563;52.242;9.098;2022-09-01T13:06:56;6.47;;;0.85;;
16892;SDS011;8563;52.242;9.098;2022-09-01T13:09:32;1.55;;;0.60;;
16892;SDS011;8563;52.242;9.098;2022-09-01T13:12:17;1.27;;;0.60;;
16892;SDS011;8563;52.242;9.098;2022-09-01T13:14:51;3.35;;;0.60;;
16892;SDS011;8563;52.242;9.098;2022-09-01T13:17:25;1.38;;;0.57;;
16892;SDS011;8563;52.242;9.098;2022-09-01T13:19:57;0.80;;;0.40;;
16892;SDS011;8563;52.242;9.098;2022-09-01T13:22:29;2.10;;;0.60;;
16892;SDS011;8563;52.242;9.098;2022-09-01T13:25:02;1.73;;;0.55;;
16892;SDS011;8563;52.242;9.098;2022-09-01T13:27:35;2.03;;;0.50;;
16892;SDS011;8563;52.242;9.098;2022-09-01T13:30:08;3.10;;;0.50;;
16892;SDS011;8563;52.242;9.098;2022-09-01T13:32:46;1.63;;;0.68;;
16892;SDS011;8563;52.242;9.098;2022-09-01T13:35:19;4.78;;;0.80;;
16892;SDS011;8563;52.242;9.098;2022-09-01T13:37:53;1.02;;;0.55;;
16892;SDS011;8563;52.242;9.098;2022-09-01T13:40:25;3.00;;;0.60;;
16892;SDS011;8563;52.242;9.098;2022-09-01T13:42:58;1.77;;;0.65;;
16892;SDS011;8563;52.242;9.098;2022-09-01T13:45:31;4.25;;;0.55;;
16892;SDS011;8563;52.242;9.098;2022-09-01T13:48:05;3.42;;;0.60;;
16892;SDS011;8563;52.242;9.098;2022-09-01T13:50:38;1.83;;;0.50;;
16892;SDS011;8563;52.242;9.098;2022-09-01T13:53:11;1.25;;;0.60;;
16892;SDS011;8563;52.242;9.098;2022-09-01T13:55:43;2.92;;;0.60;;
16892;SDS011;8563;52.242;9.098;2022-09-01T13:58:16;1.85;;;0.50;;
16892;SDS011;8563;52.242;9.098;2022-09-01T14:00:48;0.73;;;0.50;;
16892;SDS011;8563;52.242;9.098;2022-09-01T14:03:23;1.48;;;0.60;;
16892;SDS011;8563;52.242;9.098;2022-09-01T14:05:55;3.47;;;0.63;;
16892;SDS011;8563;52.242;9.098;2022-09-01T14:08:28;1.88;;;0.60;;
16892;SDS011;8563;52.242;9.098;2022-09-01T14:11:02;0.95;;;0.70;;
16892;SDS011;8563;52.242;9.098;2022-09-01T14:13:34;2.00;;;0.60;;
16892;SDS011;8563;52.242;9.098;2022-09-01T14:16:08;0.70;;;0.68;;
16892;SDS011;8563;52.242;9.098;2022-09-01T14:18:43;0.63;;;0.50;;
16892;SDS011;8563;52.242;9.098;2022-09-01T14:21:15;3.28;;;0.50;;
16892;SDS011;8563;52.242;9.098;2022-09-01T14:23:48;0.80;;;0.47;;
16892;SDS011;8563;52.242;9.098;2022-09-01T14:26:20;4.35;;;0.50;;
16892;SDS011;8563;52.242;9.098;2022-09-01T14:28:53;1.58;;;0.70;;
16892;SDS011;8563;52.242;9.098;2022-09-01T14:31:25;0.88;;;0.60;;
16892;SDS011;8563;52.242;9.098;2022-09-01T14:34:00;1.15;;;0.60;;
16892;SDS011;8563;52.242;9.098;2022-09-01T14:36:33;0.82;;;0.55;;
16892;SDS011;8563;52.242;9.098;2022-09-01T14:39:05;0.68;;;0.68;;
16892;SDS011;8563;52.242;9.098;2022-09-01T14:41:38;3.42;;;0.68;;
16892;SDS011;8563;52.242;9.098;2022-09-01T14:44:10;2.70;;;0.60;;
16892;SDS011;8563;52.242;9.098;2022-09-01T14:46:42;1.05;;;0.52;;
16892;SDS011;8563;52.242;9.098;2022-09-01T14:49:17;1.75;;;0.50;;
16892;SDS011;8563;52.242;9.098;2022-09-01T14:51:50;2.35;;;0.70;;
16892;SDS011;8563;52.242;9.098;2022-09-01T14:54:22;2.65;;;0.50;;
16892;SDS011;8563;52.242;9.098;2022-09-01T14:56:54;0.70;;;0.50;;
16892;SDS011;8563;52.242;9.098;2022-09-01T14:59:26;2.42;;;0.57;;
16892;SDS011;8563;52.242;9.098;2022-09-01T15:01:59;3.17;;;0.57;;
16892;SDS011;8563;52.242;9.098;2022-09-01T15:04:33;3.42;;;0.70;;
16892;SDS011;8563;52.242;9.098;2022-09-01T15:07:05;0.80;;;0.50;;
16892;SDS011;8563;52.242;9.098;2022-09-01T15:09:38;2.38;;;0.65;;
16892;SDS011;8563;52.242;9.098;2022-09-01T15:12:11;1.70;;;0.65;;
16892;SDS011;8563;52.242;9.098;2022-09-01T15:14:44;0.77;;;0.60;;
16892;SDS011;8563;52.242;9.098;2022-09-01T15:17:16;2.78;;;0.60;;
16892;SDS011;8563;52.242;9.098;2022-09-01T15:19:50;0.43;;;0.40;;
16892;SDS011;8563;52.242;9.098;2022-09-01T15:22:22;0.55;;;0.55;;
16892;SDS011;8563;52.242;9.098;2022-09-01T15:24:55;3.00;;;0.50;;
16892;SDS011;8563;52.242;9.098;2022-09-01T15:27:27;0.70;;;0.50;;
16892;SDS011;8563;52.242;9.098;2022-09-01T15:29:59;0.50;;;0.50;;
16892;SDS011;8563;52.242;9.098;2022-09-01T15:32:31;4.15;;;0.60;;
16892;SDS011;8563;52.242;9.098;2022-09-01T15:35:07;0.68;;;0.50;;
16892;SDS011;8563;52.242;9.098;2022-09-01T15:37:40;2.72;;;0.45;;
16892;SDS011;8563;52.242;9.098;2022-09-01T15:40:13;1.05;;;0.43;;
16892;SDS011;8563;52.242;9.098;2022-09-01T15:42:46;1.55;;;0.50;;
16892;SDS011;8563;52.242;9.098;2022-09-01T15:45:19;1.60;;;0.60;;
16892;SDS011;8563;52.242;9.098;2022-09-01T15:47:52;0.73;;;0.50;;
16892;SDS011;8563;52.242;9.098;2022-09-01T15:50:26;3.30;;;0.80;;
16892;SDS011;8563;52.242;9.098;2022-09-01T15:52:59;3.08;;;0.60;;
16892;SDS011;8563;52.242;9.098;2022-09-01T15:55:39;1.27;;;0.50;;
16892;SDS011;8563;52.242;9.098;2022-09-01T15:58:13;1.05;;;0.45;;
16892;SDS011;8563;52.242;9.098;2022-09-01T16:00:49;1.38;;;0.40;;
16892;SDS011;8563;52.242;9.098;2022-09-01T16:03:21;2.63;;;0.50;;
16892;SDS011;8563;52.242;9.098;2022-09-01T16:05:56;2.15;;;0.50;;
16892;SDS011;8563;52.242;9.098;2022-09-01T16:08:30;1.75;;;0.60;;
16892;SDS011;8563;52.242;9.098;2022-09-01T16:11:04;1.42;;;0.60;;
16892;SDS011;8563;52.242;9.098;2022-09-01T16:13:39;0.80;;;0.52;;